AirNav   Everest Fuels
 
 1441 users online  

9MO1 Missouri Baptist Hospital Heliport
St Louis, Missouri, USA

GOING TO ST LOUIS?


FAA INFORMATION EFFECTIVE 07 NOVEMBER 2019

Location

FAA Identifier: 9MO1
Lat/Long: 38-38-08.1800N 090-26-43.3800W
38-38.136333N 090-26.723000W
38.6356056,-90.4453833
(estimated)
Elevation: 713 ft. / 217 m (estimated)
Variation: 02E (1985)
Time zone: UTC -6 (UTC -5 during Daylight Saving Time)
Zip code: 63131

Heliport Operations

Heliport use: Private use, MEDICAL.
Activation date: 06/1974
Control tower: no
ARTCC: KANSAS CITY CENTER
FSS: SAINT LOUIS FLIGHT SERVICE STATION
Attendance: CONTINUOUS
Wind indicator: yes
Segmented circle: no

Heliport Communications

WX ASOS at STL (8 nm NE): PHONE 314-890-4790
WX ASOS at SUS (10 nm W): 134.8 (314-890-7255)
WX ASOS at CPS (14 nm E): PHONE 618-332-0001
WX ASOS at SET (18 nm N): 118.075 (636-250-4590)

Nearby radio navigation aids

VOR radial/distance  VOR name  Freq  Var
STLr172/13.6ST LOUIS VORTAC117.4001E
FTZr093/24.9FORISTELL VORTAC110.8005E
TOYr252/25.4TROY VORTAC116.0004E

 
NDB name  Hdg/Dist  Freq  Var  ID
EAVES119/5.422701WFZ ..-. --..
OBLIO173/10.033801WLM .-.. --
ZUMAY221/12.040401WST ... -
CIVIC MEMORIAL231/23.826301WCVM -.-. ...- --

Heliport Services

Runway Information

Helipad H1

Dimensions: 45 x 44 ft. / 14 x 13 m
Surface: mats
Latitude: 38-38.136333N
Longitude: 090-26.723000W
Elevation: 713.0 ft.
Traffic pattern: leftleft

Heliport Ownership and Management from official FAA records

Ownership: Privately-owned
Owner: MISSOURI BAPTIST HOSPITAL
3015 N BALLAS RD
ST LOUIS, MO 63131
Phone 314-996-5253
Manager: KEITH STUMPF
3015 N BALLAS RD
ST LOUIS, MO 63131
Phone 314-996-5253

Additional Remarks

INGRESS/EGRESS LIMITED FROM H1 FROM 355 DEG CLOCKWISE TO 175 DEG, RELATIVE TO TRUE NORTH.
FOR CD CTC ST LOUIS APCH AT 314-890-1018.

Instrument Procedures

There are no published instrument procedures at 9MO1.

Some nearby airports with instrument procedures:

1H0 - Creve Coeur Airport (6 nm NW)
KSTL - St Louis Lambert International Airport (8 nm NE)
KSUS - Spirit of St Louis Airport (10 nm W)
KCPS - St Louis Downtown Airport (14 nm E)
KSET - St Charles County Smartt Airport (18 nm N)
 
Loc | Ops | Rwys | IFR | FBO | Links
Com | Nav | Svcs | Stats | Notes

Kansas City Aviation Department
 
Area around 9MO1 (Missouri Baptist Hospital Heliport)
 
Road maps at: MapQuest Bing Google
 
Aerial photo
No photo
 
Sectional chart

 
Airport distance calculator
Flying to Missouri Baptist Hospital Heliport? Find the distance to fly.

From to 9MO1

Sunrise and sunset
Times for 12-Nov-2019
 Local
(UTC-6)
 Zulu
(UTC)
Morning civil twilight06:1312:13
Sunrise06:4212:42
Sunset16:5022:50
Evening civil twilight17:1823:18

Current date and time
Zulu (UTC)  12-Nov-2019 16:16:56
Local (UTC-6)  12-Nov-2019 10:16:56
 
METAR
KSTL 
8nm NE 
121551Z 32008KT 10SM FEW030 M09/M16 A3063 RMK AO2 SLP391 T10941156
KSUS 
10nm W 
121554Z 33006KT 10SM FEW030 M09/M16 A3064 RMK AO2 SLP390 T10941156
KCPS 
14nm E 
121553Z 33008KT 10SM CLR M09/M16 A3064 RMK AO2 SLP383 T10891156
KSET 
18nm N 
121554Z AUTO A3064 RMK AO2 SLPNO PWINO FZRANO $
TAF
KSTL 
8nm NE 
121120Z 1212/1318 32009KT P6SM SKC FM130000 VRB04KT P6SM SKC FM130500 15006KT P6SM FEW250 FM131400 17010G19KT P6SM FEW250
KSUS 
10nm W 
121120Z 1212/1312 32007KT P6SM SKC FM122200 VRB04KT P6SM SKC FM130500 15006KT P6SM FEW250
KCPS 
14nm E 
121120Z 1212/1312 32010KT P6SM SKC FM122300 VRB04KT P6SM SKC FM130500 15006KT P6SM FEW250
NOTAMs
Click for the latest NOTAMs
NOTAMs are issued by the DoD/FAA and will open in a separate window not controlled by AirNav.

 

 
 

Would you like to see your business listed on this page?

 If your business provides an interesting product or service to pilots, flight crews, aircraft, or users of the Missouri Baptist Hospital Heliport, you should consider listing it here.  To start the listing process, click on the button below
 
Add a business
 

Other Pages about Missouri Baptist Hospital Heliport

Update a link
 
Copyright © AirNav, LLC. All rights reserved. Privacy Policy  Contact